sensor_id;sensor_type;location;lat;lon;timestamp;temperature;humidity
40125;DHT22;25834;51.148;6.948;2022-10-04T00:00:22;20.30;95.20
40125;DHT22;25834;51.148;6.948;2022-10-04T00:01:02;20.30;95.20
40125;DHT22;25834;51.148;6.948;2022-10-04T00:01:52;20.30;95.30
40125;DHT22;25834;51.148;6.948;2022-10-04T00:02:29;20.30;95.30
40125;DHT22;25834;51.148;6.948;2022-10-04T00:03:11;20.30;95.30
40125;DHT22;25834;51.148;6.948;2022-10-04T00:03:45;20.30;95.30
40125;DHT22;25834;51.148;6.948;2022-10-04T00:04:27;20.30;95.20
40125;DHT22;25834;51.148;6.948;2022-10-04T00:05:07;20.30;95.20
40125;DHT22;25834;51.148;6.948;2022-10-04T00:05:40;20.30;95.20
40125;DHT22;25834;51.148;6.948;2022-10-04T00:06:18;20.30;95.20
40125;DHT22;25834;51.148;6.948;2022-10-04T00:07:26;20.30;95.10
40125;DHT22;25834;51.148;6.948;2022-10-04T00:09:21;20.30;95.40
40125;DHT22;25834;51.148;6.948;2022-10-04T00:10:02;20.30;95.10
40125;DHT22;25834;51.148;6.948;2022-10-04T00:10:36;20.30;95.10
40125;DHT22;25834;51.148;6.948;2022-10-04T00:11:49;20.30;95.10
40125;DHT22;25834;51.148;6.948;2022-10-04T00:12:35;20.20;95.10
40125;DHT22;25834;51.148;6.948;2022-10-04T00:13:14;20.20;95.10
40125;DHT22;25834;51.148;6.948;2022-10-04T00:13:49;20.20;95.10
40125;DHT22;25834;51.148;6.948;2022-10-04T00:14:30;20.20;95.10
40125;DHT22;25834;51.148;6.948;2022-10-04T00:15:21;20.20;95.10
40125;DHT22;25834;51.148;6.948;2022-10-04T00:15:52;20.20;95.10
40125;DHT22;25834;51.148;6.948;2022-10-04T00:16:35;20.20;95.10
40125;DHT22;25834;51.148;6.948;2022-10-04T00:17:09;20.20;95.10
40125;DHT22;25834;51.148;6.948;2022-10-04T00:17:41;20.20;95.10
40125;DHT22;25834;51.148;6.948;2022-10-04T00:18:31;20.20;95.10
40125;DHT22;25834;51.148;6.948;2022-10-04T00:19:50;20.20;95.20
40125;DHT22;25834;51.148;6.948;2022-10-04T00:21:20;20.20;95.20
40125;DHT22;25834;51.148;6.948;2022-10-04T00:22:29;20.20;95.20
40125;DHT22;25834;51.148;6.948;2022-10-04T00:23:29;20.20;95.20
40125;DHT22;25834;51.148;6.948;2022-10-04T00:24:18;20.20;95.20
40125;DHT22;25834;51.148;6.948;2022-10-04T00:25:42;20.10;95.20
40125;DHT22;25834;51.148;6.948;2022-10-04T00:27:19;20.10;95.30
40125;DHT22;25834;51.148;6.948;2022-10-04T00:28:48;20.10;95.30
40125;DHT22;25834;51.148;6.948;2022-10-04T00:29:40;20.10;95.40
40125;DHT22;25834;51.148;6.948;2022-10-04T00:30:20;20.10;95.40
40125;DHT22;25834;51.148;6.948;2022-10-04T00:31:18;20.10;95.40
40125;DHT22;25834;51.148;6.948;2022-10-04T00:34:47;20.10;95.30
40125;DHT22;25834;51.148;6.948;2022-10-04T00:35:55;20.10;95.30
40125;DHT22;25834;51.148;6.948;2022-10-04T00:37:11;20.10;95.30
40125;DHT22;25834;51.148;6.948;2022-10-04T00:37:24;20.10;95.30
40125;DHT22;25834;51.148;6.948;2022-10-04T00:38:00;20.10;95.30
40125;DHT22;25834;51.148;6.948;2022-10-04T00:38:31;20.10;95.30
40125;DHT22;25834;51.148;6.948;2022-10-04T00:39:42;20.10;95.40
40125;DHT22;25834;51.148;6.948;2022-10-04T00:40:17;20.10;95.40
40125;DHT22;25834;51.148;6.948;2022-10-04T00:41:03;20.10;95.40
40125;DHT22;25834;51.148;6.948;2022-10-04T00:41:46;20.00;95.40
40125;DHT22;25834;51.148;6.948;2022-10-04T00:42:22;20.00;95.40
40125;DHT22;25834;51.148;6.948;2022-10-04T00:43:03;20.00;95.50
40125;DHT22;25834;51.148;6.948;2022-10-04T00:43:46;20.10;95.50
40125;DHT22;25834;51.148;6.948;2022-10-04T00:44:22;20.00;95.40
40125;DHT22;25834;51.148;6.948;2022-10-04T00:44:57;20.00;95.40
40125;DHT22;25834;51.148;6.948;2022-10-04T00:45:43;20.00;95.40
40125;DHT22;25834;51.148;6.948;2022-10-04T00:46:21;20.00;95.40
40125;DHT22;25834;51.148;6.948;2022-10-04T00:46:55;20.00;95.50
40125;DHT22;25834;51.148;6.948;2022-10-04T00:48:21;20.00;95.40
40125;DHT22;25834;51.148;6.948;2022-10-04T00:49:05;20.00;95.50
40125;DHT22;25834;51.148;6.948;2022-10-04T00:49:39;20.00;95.50
40125;DHT22;25834;51.148;6.948;2022-10-04T00:50:14;20.00;95.50
40125;DHT22;25834;51.148;6.948;2022-10-04T00:51:01;20.00;95.50
40125;DHT22;25834;51.148;6.948;2022-10-04T00:51:43;20.00;95.50
40125;DHT22;25834;51.148;6.948;2022-10-04T00:52:21;20.00;95.50
40125;DHT22;25834;51.148;6.948;2022-10-04T00:52:56;20.00;95.50
40125;DHT22;25834;51.148;6.948;2022-10-04T00:54:22;20.00;95.50
40125;DHT22;25834;51.148;6.948;2022-10-04T00:54:59;20.00;95.50
40125;DHT22;25834;51.148;6.948;2022-10-04T00:55:44;20.00;95.50
40125;DHT22;25834;51.148;6.948;2022-10-04T00:56:23;20.00;95.50
40125;DHT22;25834;51.148;6.948;2022-10-04T00:56:59;20.00;95.50
40125;DHT22;25834;51.148;6.948;2022-10-04T00:57:36;20.00;95.50
40125;DHT22;25834;51.148;6.948;2022-10-04T00:58:19;20.00;95.50
40125;DHT22;25834;51.148;6.948;2022-10-04T00:59:47;20.00;95.50
40125;DHT22;25834;51.148;6.948;2022-10-04T01:00:20;20.00;95.50
40125;DHT22;25834;51.148;6.948;2022-10-04T01:00:52;20.00;95.50
40125;DHT22;25834;51.148;6.948;2022-10-04T01:01:26;19.90;95.50
40125;DHT22;25834;51.148;6.948;2022-10-04T01:02:47;20.00;95.50
40125;DHT22;25834;51.148;6.948;2022-10-04T01:03:27;20.00;95.50
40125;DHT22;25834;51.148;6.948;2022-10-04T01:04:02;20.00;95.50
40125;DHT22;25834;51.148;6.948;2022-10-04T01:04:55;19.90;95.50
40125;DHT22;25834;51.148;6.948;2022-10-04T01:05:49;19.90;95.50
40125;DHT22;25834;51.148;6.948;2022-10-04T01:06:20;19.90;95.50
40125;DHT22;25834;51.148;6.948;2022-10-04T01:06:51;19.90;95.50
40125;DHT22;25834;51.148;6.948;2022-10-04T01:07:35;19.90;95.50
40125;DHT22;25834;51.148;6.948;2022-10-04T01:08:25;19.90;95.50
40125;DHT22;25834;51.148;6.948;2022-10-04T01:09:04;19.90;95.50
40125;DHT22;25834;51.148;6.948;2022-10-04T01:09:40;19.90;95.50
40125;DHT22;25834;51.148;6.948;2022-10-04T01:11:29;19.90;95.40
40125;DHT22;25834;51.148;6.948;2022-10-04T01:13:24;19.90;95.50
40125;DHT22;25834;51.148;6.948;2022-10-04T01:14:17;19.90;95.50
40125;DHT22;25834;51.148;6.948;2022-10-04T01:14:51;19.90;95.60
40125;DHT22;25834;51.148;6.948;2022-10-04T01:15:35;19.90;95.60
40125;DHT22;25834;51.148;6.948;2022-10-04T01:16:21;19.90;95.60
40125;DHT22;25834;51.148;6.948;2022-10-04T01:16:52;19.90;95.60
40125;DHT22;25834;51.148;6.948;2022-10-04T01:17:23;19.90;95.60
40125;DHT22;25834;51.148;6.948;2022-10-04T01:18:10;19.90;95.50
40125;DHT22;25834;51.148;6.948;2022-10-04T01:18:42;19.90;95.60
40125;DHT22;25834;51.148;6.948;2022-10-04T01:19:53;19.90;95.50
40125;DHT22;25834;51.148;6.948;2022-10-04T01:20:33;19.80;95.40
40125;DHT22;25834;51.148;6.948;2022-10-04T01:22:41;19.80;95.50
40125;DHT22;25834;51.148;6.948;2022-10-04T01:23:33;19.80;95.60
40125;DHT22;25834;51.148;6.948;2022-10-04T01:24:40;19.80;95.70
40125;DHT22;25834;51.148;6.948;2022-10-04T01:27:02;19.80;95.70
40125;DHT22;25834;51.148;6.948;2022-10-04T01:27:51;19.80;95.70
40125;DHT22;25834;51.148;6.948;2022-10-04T01:28:22;19.80;95.70
40125;DHT22;25834;51.148;6.948;2022-10-04T01:29:15;19.80;95.60
40125;DHT22;25834;51.148;6.948;2022-10-04T01:29:44;19.80;95.70
40125;DHT22;25834;51.148;6.948;2022-10-04T01:30:16;19.80;95.70
40125;DHT22;25834;51.148;6.948;2022-10-04T01:30:47;19.80;95.70
40125;DHT22;25834;51.148;6.948;2022-10-04T01:31:18;19.80;95.70
40125;DHT22;25834;51.148;6.948;2022-10-04T01:31:53;19.80;95.70
40125;DHT22;25834;51.148;6.948;2022-10-04T01:32:25;19.80;95.70
40125;DHT22;25834;51.148;6.948;2022-10-04T01:32:55;19.80;95.70
40125;DHT22;25834;51.148;6.948;2022-10-04T01:33:26;19.80;95.70
40125;DHT22;25834;51.148;6.948;2022-10-04T01:33:58;19.80;95.70
40125;DHT22;25834;51.148;6.948;2022-10-04T01:34:29;19.80;95.70
40125;DHT22;25834;51.148;6.948;2022-10-04T01:35:00;19.80;95.70
40125;DHT22;25834;51.148;6.948;2022-10-04T01:35:31;19.80;95.70
40125;DHT22;25834;51.148;6.948;2022-10-04T01:36:04;19.80;95.60
40125;DHT22;25834;51.148;6.948;2022-10-04T01:36:35;19.80;95.70
40125;DHT22;25834;51.148;6.948;2022-10-04T01:37:06;19.80;95.60
40125;DHT22;25834;51.148;6.948;2022-10-04T01:37:37;19.70;95.60
40125;DHT22;25834;51.148;6.948;2022-10-04T01:38:08;19.70;95.60
40125;DHT22;25834;51.148;6.948;2022-10-04T01:38:39;19.70;95.60
40125;DHT22;25834;51.148;6.948;2022-10-04T01:39:12;19.70;96.00
40125;DHT22;25834;51.148;6.948;2022-10-04T01:39:43;19.70;95.60
40125;DHT22;25834;51.148;6.948;2022-10-04T01:40:14;19.70;95.70
40125;DHT22;25834;51.148;6.948;2022-10-04T01:40:54;19.70;95.70
40125;DHT22;25834;51.148;6.948;2022-10-04T01:42:04;19.70;95.70
40125;DHT22;25834;51.148;6.948;2022-10-04T01:42:31;19.70;95.70
40125;DHT22;25834;51.148;6.948;2022-10-04T01:43:07;19.70;95.70
40125;DHT22;25834;51.148;6.948;2022-10-04T01:43:41;19.70;95.70
40125;DHT22;25834;51.148;6.948;2022-10-04T01:45:34;19.70;95.60
40125;DHT22;25834;51.148;6.948;2022-10-04T01:46:19;19.70;95.70
40125;DHT22;25834;51.148;6.948;2022-10-04T01:46:54;19.70;95.70
40125;DHT22;25834;51.148;6.948;2022-10-04T01:47:41;19.70;95.60
40125;DHT22;25834;51.148;6.948;2022-10-04T01:48:15;19.70;95.70
40125;DHT22;25834;51.148;6.948;2022-10-04T01:48:48;19.70;95.70
40125;DHT22;25834;51.148;6.948;2022-10-04T01:49:22;19.70;95.70
40125;DHT22;25834;51.148;6.948;2022-10-04T01:49:56;19.70;95.70
40125;DHT22;25834;51.148;6.948;2022-10-04T01:50:42;19.60;95.60
40125;DHT22;25834;51.148;6.948;2022-10-04T01:51:23;19.70;95.70
40125;DHT22;25834;51.148;6.948;2022-10-04T01:52:07;19.70;95.70
40125;DHT22;25834;51.148;6.948;2022-10-04T01:53:49;19.70;95.70
40125;DHT22;25834;51.148;6.948;2022-10-04T01:54:33;19.70;95.60
40125;DHT22;25834;51.148;6.948;2022-10-04T01:55:08;19.70;95.60
40125;DHT22;25834;51.148;6.948;2022-10-04T01:55:43;19.60;95.60
40125;DHT22;25834;51.148;6.948;2022-10-04T01:56:20;19.60;95.60
40125;DHT22;25834;51.148;6.948;2022-10-04T01:57:02;19.60;95.60
40125;DHT22;25834;51.148;6.948;2022-10-04T01:57:43;19.60;95.60
40125;DHT22;25834;51.148;6.948;2022-10-04T01:58:32;19.60;95.60
40125;DHT22;25834;51.148;6.948;2022-10-04T01:59:06;19.60;95.60
40125;DHT22;25834;51.148;6.948;2022-10-04T01:59:53;19.60;95.60
40125;DHT22;25834;51.148;6.948;2022-10-04T02:00:26;19.60;95.60
40125;DHT22;25834;51.148;6.948;2022-10-04T02:01:06;19.60;95.70
40125;DHT22;25834;51.148;6.948;2022-10-04T02:01:45;19.60;95.60
40125;DHT22;25834;51.148;6.948;2022-10-04T02:02:56;19.60;95.60
40125;DHT22;25834;51.148;6.948;2022-10-04T02:03:38;19.60;95.60
40125;DHT22;25834;51.148;6.948;2022-10-04T02:04:26;19.60;95.60
40125;DHT22;25834;51.148;6.948;2022-10-04T02:04:57;19.60;95.60
40125;DHT22;25834;51.148;6.948;2022-10-04T02:05:56;19.60;95.60
40125;DHT22;25834;51.148;6.948;2022-10-04T02:06:28;19.60;95.50
40125;DHT22;25834;51.148;6.948;2022-10-04T02:07:00;19.50;95.50
40125;DHT22;25834;51.148;6.948;2022-10-04T02:07:32;19.60;95.50
40125;DHT22;25834;51.148;6.948;2022-10-04T02:08:07;19.60;95.50
40125;DHT22;25834;51.148;6.948;2022-10-04T02:08:46;19.60;95.50
40125;DHT22;25834;51.148;6.948;2022-10-04T02:09:32;19.60;95.40
40125;DHT22;25834;51.148;6.948;2022-10-04T02:10:09;19.60;95.40
40125;DHT22;25834;51.148;6.948;2022-10-04T02:10:40;19.60;95.40
40125;DHT22;25834;51.148;6.948;2022-10-04T02:11:18;19.60;95.40
40125;DHT22;25834;51.148;6.948;2022-10-04T02:11:53;19.60;95.30
40125;DHT22;25834;51.148;6.948;2022-10-04T02:12:25;19.60;95.30
40125;DHT22;25834;51.148;6.948;2022-10-04T02:12:57;19.60;95.30
40125;DHT22;25834;51.148;6.948;2022-10-04T02:13:36;19.60;95.30
40125;DHT22;25834;51.148;6.948;2022-10-04T02:14:16;19.60;95.30
40125;DHT22;25834;51.148;6.948;2022-10-04T02:14:50;19.60;95.30
40125;DHT22;25834;51.148;6.948;2022-10-04T02:15:23;19.60;95.30
40125;DHT22;25834;51.148;6.948;2022-10-04T02:15:57;19.60;95.30
40125;DHT22;25834;51.148;6.948;2022-10-04T02:16:28;19.50;95.30
40125;DHT22;25834;51.148;6.948;2022-10-04T02:17:06;19.50;95.30
40125;DHT22;25834;51.148;6.948;2022-10-04T02:17:41;19.50;95.40
40125;DHT22;25834;51.148;6.948;2022-10-04T02:18:17;19.50;95.40
40125;DHT22;25834;51.148;6.948;2022-10-04T02:18:50;19.50;95.50
40125;DHT22;25834;51.148;6.948;2022-10-04T02:19:34;19.50;95.50
40125;DHT22;25834;51.148;6.948;2022-10-04T02:20:18;19.50;95.50
40125;DHT22;25834;51.148;6.948;2022-10-04T02:20:50;19.50;95.50
40125;DHT22;25834;51.148;6.948;2022-10-04T02:21:22;19.50;95.50
40125;DHT22;25834;51.148;6.948;2022-10-04T02:21:54;19.50;95.50
40125;DHT22;25834;51.148;6.948;2022-10-04T02:22:25;19.50;95.50
40125;DHT22;25834;51.148;6.948;2022-10-04T02:22:58;19.50;95.50
40125;DHT22;25834;51.148;6.948;2022-10-04T02:23:33;19.50;95.50
40125;DHT22;25834;51.148;6.948;2022-10-04T02:24:06;19.50;95.50
40125;DHT22;25834;51.148;6.948;2022-10-04T02:24:42;19.50;95.50
40125;DHT22;25834;51.148;6.948;2022-10-04T02:25:13;19.50;95.50
40125;DHT22;25834;51.148;6.948;2022-10-04T02:25:45;19.50;95.50
40125;DHT22;25834;51.148;6.948;2022-10-04T02:26:16;19.50;95.50
40125;DHT22;25834;51.148;6.948;2022-10-04T02:26:51;19.50;95.40
40125;DHT22;25834;51.148;6.948;2022-10-04T02:27:26;19.50;95.40
40125;DHT22;25834;51.148;6.948;2022-10-04T02:28:00;19.50;95.40
40125;DHT22;25834;51.148;6.948;2022-10-04T02:28:32;19.50;95.40
40125;DHT22;25834;51.148;6.948;2022-10-04T02:29:03;19.50;95.30
40125;DHT22;25834;51.148;6.948;2022-10-04T02:29:34;19.50;95.30
40125;DHT22;25834;51.148;6.948;2022-10-04T02:30:08;19.50;95.20
40125;DHT22;25834;51.148;6.948;2022-10-04T02:30:50;19.50;95.20
40125;DHT22;25834;51.148;6.948;2022-10-04T02:31:39;19.50;95.20
40125;DHT22;25834;51.148;6.948;2022-10-04T02:32:31;19.50;95.20
40125;DHT22;25834;51.148;6.948;2022-10-04T02:33:20;19.50;95.20
40125;DHT22;25834;51.148;6.948;2022-10-04T02:33:54;19.50;95.30
40125;DHT22;25834;51.148;6.948;2022-10-04T02:34:26;19.40;95.20
40125;DHT22;25834;51.148;6.948;2022-10-04T02:34:57;19.40;95.20
40125;DHT22;25834;51.148;6.948;2022-10-04T02:35:36;19.40;95.20
40125;DHT22;25834;51.148;6.948;2022-10-04T02:36:08;19.40;95.20
40125;DHT22;25834;51.148;6.948;2022-10-04T02:36:40;19.40;95.20
40125;DHT22;25834;51.148;6.948;2022-10-04T02:37:11;19.40;95.20
40125;DHT22;25834;51.148;6.948;2022-10-04T02:37:43;19.50;95.20
40125;DHT22;25834;51.148;6.948;2022-10-04T02:38:20;19.40;95.20
40125;DHT22;25834;51.148;6.948;2022-10-04T02:40:09;19.40;95.30
40125;DHT22;25834;51.148;6.948;2022-10-04T02:41:08;19.40;95.10
40125;DHT22;25834;51.148;6.948;2022-10-04T02:41:50;19.40;95.20
40125;DHT22;25834;51.148;6.948;2022-10-04T02:44:24;19.40;95.10
40125;DHT22;25834;51.148;6.948;2022-10-04T02:45:14;19.40;95.10
40125;DHT22;25834;51.148;6.948;2022-10-04T02:46:04;19.40;95.00
40125;DHT22;25834;51.148;6.948;2022-10-04T02:46:51;19.40;95.00
40125;DHT22;25834;51.148;6.948;2022-10-04T02:47:27;19.40;95.00
40125;DHT22;25834;51.148;6.948;2022-10-04T02:48:12;19.40;95.00
40125;DHT22;25834;51.148;6.948;2022-10-04T02:48:52;19.40;95.00
40125;DHT22;25834;51.148;6.948;2022-10-04T02:49:34;19.40;95.00
40125;DHT22;25834;51.148;6.948;2022-10-04T02:50:22;19.40;95.00
40125;DHT22;25834;51.148;6.948;2022-10-04T02:50:59;19.40;95.00
40125;DHT22;25834;51.148;6.948;2022-10-04T02:51:50;19.40;95.00
40125;DHT22;25834;51.148;6.948;2022-10-04T02:55:18;19.30;95.00
40125;DHT22;25834;51.148;6.948;2022-10-04T02:55:50;19.30;95.30
40125;DHT22;25834;51.148;6.948;2022-10-04T02:56:22;19.30;94.90
40125;DHT22;25834;51.148;6.948;2022-10-04T02:56:55;19.30;95.00
40125;DHT22;25834;51.148;6.948;2022-10-04T02:57:29;19.30;94.90
40125;DHT22;25834;51.148;6.948;2022-10-04T02:58:01;19.30;94.90
40125;DHT22;25834;51.148;6.948;2022-10-04T02:58:39;19.30;94.80
40125;DHT22;25834;51.148;6.948;2022-10-04T02:59:14;19.30;94.80
40125;DHT22;25834;51.148;6.948;2022-10-04T02:59:46;19.30;94.80
40125;DHT22;25834;51.148;6.948;2022-10-04T03:00:23;19.30;94.80
40125;DHT22;25834;51.148;6.948;2022-10-04T03:00:56;19.30;94.80
40125;DHT22;25834;51.148;6.948;2022-10-04T03:01:54;19.30;94.70
40125;DHT22;25834;51.148;6.948;2022-10-04T03:02:27;19.30;94.70
40125;DHT22;25834;51.148;6.948;2022-10-04T03:03:51;19.30;94.70
40125;DHT22;25834;51.148;6.948;2022-10-04T03:04:37;19.30;94.70
40125;DHT22;25834;51.148;6.948;2022-10-04T03:05:10;19.30;94.70
40125;DHT22;25834;51.148;6.948;2022-10-04T03:05:44;19.30;94.70
40125;DHT22;25834;51.148;6.948;2022-10-04T03:06:23;19.30;94.70
40125;DHT22;25834;51.148;6.948;2022-10-04T03:06:59;19.30;94.70
40125;DHT22;25834;51.148;6.948;2022-10-04T03:07:33;19.30;94.70
40125;DHT22;25834;51.148;6.948;2022-10-04T03:08:04;19.30;94.70
40125;DHT22;25834;51.148;6.948;2022-10-04T03:09:22;19.30;94.70
40125;DHT22;25834;51.148;6.948;2022-10-04T03:09:53;19.30;94.70
40125;DHT22;25834;51.148;6.948;2022-10-04T03:10:24;19.30;94.60
40125;DHT22;25834;51.148;6.948;2022-10-04T03:10:56;19.20;94.60
40125;DHT22;25834;51.148;6.948;2022-10-04T03:11:37;19.30;94.60
40125;DHT22;25834;51.148;6.948;2022-10-04T03:12:10;19.30;94.60
40125;DHT22;25834;51.148;6.948;2022-10-04T03:12:42;19.30;94.50
40125;DHT22;25834;51.148;6.948;2022-10-04T03:13:13;19.30;94.50
40125;DHT22;25834;51.148;6.948;2022-10-04T03:13:48;19.20;94.50
40125;DHT22;25834;51.148;6.948;2022-10-04T03:14:26;19.20;94.50
40125;DHT22;25834;51.148;6.948;2022-10-04T03:14:57;19.20;94.50
40125;DHT22;25834;51.148;6.948;2022-10-04T03:15:28;19.20;94.50
40125;DHT22;25834;51.148;6.948;2022-10-04T03:15:59;19.20;94.50
40125;DHT22;25834;51.148;6.948;2022-10-04T03:16:38;19.20;94.50
40125;DHT22;25834;51.148;6.948;2022-10-04T03:17:09;19.20;94.40
40125;DHT22;25834;51.148;6.948;2022-10-04T03:17:41;19.20;94.40
40125;DHT22;25834;51.148;6.948;2022-10-04T03:18:14;19.20;94.40
40125;DHT22;25834;51.148;6.948;2022-10-04T03:18:47;19.20;94.40
40125;DHT22;25834;51.148;6.948;2022-10-04T03:19:22;19.20;94.40
40125;DHT22;25834;51.148;6.948;2022-10-04T03:19:53;19.20;94.30
40125;DHT22;25834;51.148;6.948;2022-10-04T03:20:24;19.20;94.30
40125;DHT22;25834;51.148;6.948;2022-10-04T03:20:55;19.20;94.30
40125;DHT22;25834;51.148;6.948;2022-10-04T03:21:26;19.20;94.30
40125;DHT22;25834;51.148;6.948;2022-10-04T03:22:00;19.20;94.30
40125;DHT22;25834;51.148;6.948;2022-10-04T03:22:31;19.20;94.30
40125;DHT22;25834;51.148;6.948;2022-10-04T03:23:03;19.20;94.30
40125;DHT22;25834;51.148;6.948;2022-10-04T03:23:35;19.20;94.30
40125;DHT22;25834;51.148;6.948;2022-10-04T03:24:06;19.20;94.30
40125;DHT22;25834;51.148;6.948;2022-10-04T03:24:44;19.20;94.30
40125;DHT22;25834;51.148;6.948;2022-10-04T03:25:22;19.20;94.30
40125;DHT22;25834;51.148;6.948;2022-10-04T03:26:03;19.20;94.30
40125;DHT22;25834;51.148;6.948;2022-10-04T03:27:18;19.20;94.30
40125;DHT22;25834;51.148;6.948;2022-10-04T03:27:50;19.20;94.30
40125;DHT22;25834;51.148;6.948;2022-10-04T03:28:21;19.20;94.30
40125;DHT22;25834;51.148;6.948;2022-10-04T03:28:52;19.20;94.30
40125;DHT22;25834;51.148;6.948;2022-10-04T03:29:26;19.20;94.30
40125;DHT22;25834;51.148;6.948;2022-10-04T03:29:57;19.20;94.30
40125;DHT22;25834;51.148;6.948;2022-10-04T03:30:29;19.20;94.60
40125;DHT22;25834;51.148;6.948;2022-10-04T03:31:01;19.20;94.30
40125;DHT22;25834;51.148;6.948;2022-10-04T03:31:32;19.20;94.30
40125;DHT22;25834;51.148;6.948;2022-10-04T03:32:04;19.20;94.30
40125;DHT22;25834;51.148;6.948;2022-10-04T03:32:35;19.20;94.30
40125;DHT22;25834;51.148;6.948;2022-10-04T03:33:05;19.20;94.20
40125;DHT22;25834;51.148;6.948;2022-10-04T03:33:36;19.20;94.20
40125;DHT22;25834;51.148;6.948;2022-10-04T03:34:13;19.20;94.20
40125;DHT22;25834;51.148;6.948;2022-10-04T03:34:52;19.20;94.20
40125;DHT22;25834;51.148;6.948;2022-10-04T03:35:59;19.20;94.20
40125;DHT22;25834;51.148;6.948;2022-10-04T03:36:30;19.20;94.20
40125;DHT22;25834;51.148;6.948;2022-10-04T03:37:01;19.20;94.20
40125;DHT22;25834;51.148;6.948;2022-10-04T03:37:36;19.20;94.30
40125;DHT22;25834;51.148;6.948;2022-10-04T03:38:10;19.20;94.20
40125;DHT22;25834;51.148;6.948;2022-10-04T03:38:42;19.20;94.20
40125;DHT22;25834;51.148;6.948;2022-10-04T03:39:30;19.10;94.30
40125;DHT22;25834;51.148;6.948;2022-10-04T03:40:07;19.20;94.30
40125;DHT22;25834;51.148;6.948;2022-10-04T03:40:41;19.10;94.30
40125;DHT22;25834;51.148;6.948;2022-10-04T03:41:15;19.10;94.30
40125;DHT22;25834;51.148;6.948;2022-10-04T03:41:46;19.10;94.30
40125;DHT22;25834;51.148;6.948;2022-10-04T03:42:29;19.10;94.30
40125;DHT22;25834;51.148;6.948;2022-10-04T03:43:02;19.10;94.30
40125;DHT22;25834;51.148;6.948;2022-10-04T03:43:37;19.10;94.30
40125;DHT22;25834;51.148;6.948;2022-10-04T03:44:15;19.10;94.30
40125;DHT22;25834;51.148;6.948;2022-10-04T03:44:49;19.10;94.30
40125;DHT22;25834;51.148;6.948;2022-10-04T03:45:21;19.10;94.30
40125;DHT22;25834;51.148;6.948;2022-10-04T03:45:53;19.10;94.30
40125;DHT22;25834;51.148;6.948;2022-10-04T03:46:24;19.10;94.30
40125;DHT22;25834;51.148;6.948;2022-10-04T03:46:58;19.10;94.30
40125;DHT22;25834;51.148;6.948;2022-10-04T03:47:34;19.10;94.30
40125;DHT22;25834;51.148;6.948;2022-10-04T03:48:11;19.10;94.30
40125;DHT22;25834;51.148;6.948;2022-10-04T03:48:43;19.10;94.30
40125;DHT22;25834;51.148;6.948;2022-10-04T03:49:22;19.10;94.40
40125;DHT22;25834;51.148;6.948;2022-10-04T03:49:59;19.10;94.40
40125;DHT22;25834;51.148;6.948;2022-10-04T03:50:36;19.10;94.40
40125;DHT22;25834;51.148;6.948;2022-10-04T03:51:16;19.10;94.40
40125;DHT22;25834;51.148;6.948;2022-10-04T03:51:49;19.10;94.40
40125;DHT22;25834;51.148;6.948;2022-10-04T03:52:24;19.10;94.40
40125;DHT22;25834;51.148;6.948;2022-10-04T03:53:01;19.10;94.30
40125;DHT22;25834;51.148;6.948;2022-10-04T03:53:44;19.10;94.40
40125;DHT22;25834;51.148;6.948;2022-10-04T03:54:17;19.10;94.30
40125;DHT22;25834;51.148;6.948;2022-10-04T03:54:55;19.10;94.30
40125;DHT22;25834;51.148;6.948;2022-10-04T03:55:33;19.10;94.30
40125;DHT22;25834;51.148;6.948;2022-10-04T03:56:45;19.10;94.30
40125;DHT22;25834;51.148;6.948;2022-10-04T03:57:17;19.10;94.30
40125;DHT22;25834;51.148;6.948;2022-10-04T03:57:48;19.10;94.30
40125;DHT22;25834;51.148;6.948;2022-10-04T03:58:19;19.10;94.30
40125;DHT22;25834;51.148;6.948;2022-10-04T03:58:51;19.10;94.30
40125;DHT22;25834;51.148;6.948;2022-10-04T03:59:24;19.10;94.30
40125;DHT22;25834;51.148;6.948;2022-10-04T03:59:56;19.10;94.30
40125;DHT22;25834;51.148;6.948;2022-10-04T04:00:28;19.10;94.30
40125;DHT22;25834;51.148;6.948;2022-10-04T04:01:38;19.10;94.30
40125;DHT22;25834;51.148;6.948;2022-10-04T04:02:58;19.00;94.40
40125;DHT22;25834;51.148;6.948;2022-10-04T04:03:34;19.00;94.50
40125;DHT22;25834;51.148;6.948;2022-10-04T04:05:23;19.00;94.50
40125;DHT22;25834;51.148;6.948;2022-10-04T04:05:58;19.00;94.50
40125;DHT22;25834;51.148;6.948;2022-10-04T04:06:40;19.00;94.60
40125;DHT22;25834;51.148;6.948;2022-10-04T04:07:43;19.00;94.60
40125;DHT22;25834;51.148;6.948;2022-10-04T04:08:33;19.00;94.60
40125;DHT22;25834;51.148;6.948;2022-10-04T04:09:06;19.00;94.50
40125;DHT22;25834;51.148;6.948;2022-10-04T04:10:02;19.00;94.50
40125;DHT22;25834;51.148;6.948;2022-10-04T04:10:44;19.00;94.50
40125;DHT22;25834;51.148;6.948;2022-10-04T04:11:26;19.00;94.50
40125;DHT22;25834;51.148;6.948;2022-10-04T04:11:57;19.00;94.50
40125;DHT22;25834;51.148;6.948;2022-10-04T04:12:51;19.00;94.50
40125;DHT22;25834;51.148;6.948;2022-10-04T04:13:26;19.00;94.50
40125;DHT22;25834;51.148;6.948;2022-10-04T04:14:03;19.00;94.50
40125;DHT22;25834;51.148;6.948;2022-10-04T04:14:38;19.00;94.50
40125;DHT22;25834;51.148;6.948;2022-10-04T04:15:11;19.00;94.60
40125;DHT22;25834;51.148;6.948;2022-10-04T04:15:42;19.00;94.60
40125;DHT22;25834;51.148;6.948;2022-10-04T04:16:15;18.90;94.50
40125;DHT22;25834;51.148;6.948;2022-10-04T04:16:48;19.00;94.50
40125;DHT22;25834;51.148;6.948;2022-10-04T04:17:57;19.00;94.60
40125;DHT22;25834;51.148;6.948;2022-10-04T04:18:35;19.00;94.60
40125;DHT22;25834;51.148;6.948;2022-10-04T04:19:12;19.00;94.60
40125;DHT22;25834;51.148;6.948;2022-10-04T04:19:45;18.90;94.60
40125;DHT22;25834;51.148;6.948;2022-10-04T04:20:27;18.90;94.60
40125;DHT22;25834;51.148;6.948;2022-10-04T04:21:02;18.90;94.60
40125;DHT22;25834;51.148;6.948;2022-10-04T04:21:33;18.90;94.60
40125;DHT22;25834;51.148;6.948;2022-10-04T04:22:03;19.00;94.70
40125;DHT22;25834;51.148;6.948;2022-10-04T04:22:35;18.90;94.60
40125;DHT22;25834;51.148;6.948;2022-10-04T04:23:44;18.90;94.60
40125;DHT22;25834;51.148;6.948;2022-10-04T04:24:28;18.90;94.60
40125;DHT22;25834;51.148;6.948;2022-10-04T04:25:05;18.90;94.60
40125;DHT22;25834;51.148;6.948;2022-10-04T04:25:39;18.90;94.60
40125;DHT22;25834;51.148;6.948;2022-10-04T04:26:52;18.90;94.60
40125;DHT22;25834;51.148;6.948;2022-10-04T04:27:24;18.90;94.60
40125;DHT22;25834;51.148;6.948;2022-10-04T04:28:02;18.90;94.60
40125;DHT22;25834;51.148;6.948;2022-10-04T04:28:40;18.90;94.60
40125;DHT22;25834;51.148;6.948;2022-10-04T04:29:51;18.90;94.60
40125;DHT22;25834;51.148;6.948;2022-10-04T04:30:22;18.90;94.60
40125;DHT22;25834;51.148;6.948;2022-10-04T04:30:57;18.90;94.60
40125;DHT22;25834;51.148;6.948;2022-10-04T04:31:40;18.90;94.60
40125;DHT22;25834;51.148;6.948;2022-10-04T04:32:22;18.90;94.60